Time;durP1;ratioP1;P1;durP2;ratioP2;P2;SDS_P1;SDS_P2;PMS_P1;PMS_P2;Temp;Humidity;BMP_temperature;BMP_pressure;BME280_temperature;BME280_humidity;BME280_pressure;Samples;Min_cycle;Max_cycle;Signal;HPM_P1;HPM_P2
2023/07/09 00:20:56;;;;;;;;;;;21.40;99.90;;;;;;5038164;28;19923;-68
2023/07/09 00:23:23;;;;;;;;;;;21.30;99.90;;;;;;5025692;28;20173;-68
2023/07/09 00:25:50;;;;;;;;;;;21.30;99.90;;;;;;5023334;28;20148;-68
2023/07/09 00:28:17;;;;;;;;;;;21.30;99.90;;;;;;5023770;28;19997;-69
2023/07/09 00:30:44;;;;;;;;;;;21.20;99.90;;;;;;5047626;28;19922;-68
2023/07/09 00:33:31;;;;;;;;;;;21.20;99.90;;;;;;5047476;28;19921;-67
2023/07/09 00:35:59;;;;;;;;;;;21.10;99.90;;;;;;5046981;28;20200;-67
2023/07/09 00:38:26;;;;;;;;;;;21.10;99.90;;;;;;5046584;28;19921;-68
2023/07/09 00:41:06;;;;;;;;;;;21.00;99.90;;;;;;5047016;28;19927;-68
2023/07/09 00:46:43;;;;;;;;;;;20.90;99.90;;;;;;5046806;28;20192;-67
2023/07/09 00:49:15;;;;;;;;;;;20.90;99.90;;;;;;5046292;28;19921;-68
2023/07/09 00:52:09;;;;;;;;;;;20.80;99.90;;;;;;5047040;28;19928;-68
2023/07/09 00:57:26;;;;;;;;;;;20.70;99.90;;;;;;5056434;28;19956;-68
2023/07/09 00:59:55;;;;;;;;;;;20.70;99.90;;;;;;5027595;28;19921;-68
2023/07/09 01:02:29;;;;;;;;;;;20.60;99.90;;;;;;5046287;28;19921;-67
2023/07/09 01:05:05;;;;;;;;;;;20.50;99.90;;;;;;5046664;28;19929;-68
2023/07/09 01:07:32;;;;;;;;;;;20.40;99.90;;;;;;5046909;28;19924;-68
2023/07/09 01:10:00;;;;;;;;;;;20.40;99.90;;;;;;5046379;28;19963;-68
2023/07/09 01:12:31;;;;;;;;;;;20.40;99.90;;;;;;5046572;28;19992;-68
2023/07/09 01:17:45;;;;;;;;;;;20.40;99.90;;;;;;5025374;28;19967;-68
2023/07/09 01:20:20;;;;;;;;;;;20.30;99.90;;;;;;5048263;28;19929;-68
2023/07/09 01:22:54;;;;;;;;;;;20.30;99.90;;;;;;5047374;28;19929;-68
2023/07/09 01:25:21;;;;;;;;;;;20.20;99.90;;;;;;5047468;28;19952;-68
2023/07/09 01:27:49;;;;;;;;;;;20.20;99.90;;;;;;5046276;28;19944;-68
2023/07/09 01:30:22;;;;;;;;;;;20.20;99.90;;;;;;5045766;28;19988;-68
2023/07/09 01:32:49;;;;;;;;;;;20.10;99.90;;;;;;5046458;28;19921;-68
2023/07/09 01:35:22;;;;;;;;;;;20.10;99.90;;;;;;5045372;28;19921;-68
2023/07/09 01:37:51;;;;;;;;;;;20.00;99.90;;;;;;5045805;28;19967;-68
2023/07/09 01:40:19;;;;;;;;;;;20.00;99.90;;;;;;5044776;28;19921;-67
2023/07/09 01:42:52;;;;;;;;;;;20.00;99.90;;;;;;5046050;28;19980;-68
2023/07/09 01:45:28;;;;;;;;;;;20.00;99.90;;;;;;5045919;28;19951;-67
2023/07/09 01:47:55;;;;;;;;;;;20.00;99.90;;;;;;5045754;28;19988;-68
2023/07/09 01:50:24;;;;;;;;;;;19.90;99.90;;;;;;5045166;28;19949;-68
2023/07/09 01:52:54;;;;;;;;;;;19.90;99.90;;;;;;5045517;28;19988;-68
2023/07/09 01:55:28;;;;;;;;;;;19.90;99.90;;;;;;5045857;28;19984;-68
2023/07/09 01:58:10;;;;;;;;;;;19.90;99.90;;;;;;5045914;28;19971;-68
2023/07/09 02:06:09;;;;;;;;;;;19.70;99.90;;;;;;5045342;28;19996;-68
2023/07/09 02:08:51;;;;;;;;;;;19.70;99.90;;;;;;5045122;28;19940;-68
2023/07/09 02:11:19;;;;;;;;;;;19.70;99.90;;;;;;5045373;28;19984;-68
2023/07/09 02:13:46;;;;;;;;;;;19.60;99.90;;;;;;5045514;28;19921;-68
2023/07/09 02:16:12;;;;;;;;;;;19.60;99.90;;;;;;5045123;28;19928;-67
2023/07/09 02:18:39;;;;;;;;;;;19.60;99.90;;;;;;5044898;28;19989;-67
2023/07/09 02:21:06;;;;;;;;;;;19.60;99.90;;;;;;5045394;28;19991;-68
2023/07/09 02:23:32;;;;;;;;;;;19.50;99.90;;;;;;5045010;28;19976;-67
2023/07/09 02:25:59;;;;;;;;;;;19.50;99.90;;;;;;5044952;28;19984;-68
2023/07/09 02:28:27;;;;;;;;;;;19.50;99.90;;;;;;5044209;28;20264;-68
2023/07/09 02:30:54;;;;;;;;;;;19.40;99.90;;;;;;5047604;28;20001;-67
2023/07/09 02:33:23;;;;;;;;;;;19.40;99.90;;;;;;5060064;28;20084;-68
2023/07/09 02:35:50;;;;;;;;;;;19.40;99.90;;;;;;5044940;28;20224;-68
2023/07/09 02:38:17;;;;;;;;;;;19.30;99.90;;;;;;5044511;28;19984;-67
2023/07/09 02:40:43;;;;;;;;;;;19.20;99.90;;;;;;5044707;28;19921;-67
2023/07/09 02:43:10;;;;;;;;;;;19.20;99.90;;;;;;5044988;28;19980;-68
2023/07/09 02:45:45;;;;;;;;;;;19.20;99.90;;;;;;5026930;28;19960;-68
2023/07/09 02:48:12;;;;;;;;;;;19.10;99.90;;;;;;5024886;28;19936;-68
2023/07/09 02:50:40;;;;;;;;;;;19.10;99.90;;;;;;5025559;28;20250;-68
2023/07/09 02:53:06;;;;;;;;;;;19.00;99.90;;;;;;5044795;28;19921;-68
2023/07/09 02:55:34;;;;;;;;;;;19.00;99.90;;;;;;5042641;28;19984;-68
2023/07/09 02:58:00;;;;;;;;;;;19.00;99.90;;;;;;5024867;28;19952;-68
2023/07/09 03:00:28;;;;;;;;;;;19.00;99.90;;;;;;5028985;28;19928;-68
2023/07/09 03:02:56;;;;;;;;;;;18.90;99.90;;;;;;5044364;28;19928;-68
2023/07/09 03:05:23;;;;;;;;;;;18.90;99.90;;;;;;5044427;28;19921;-68
2023/07/09 03:07:49;;;;;;;;;;;18.90;99.90;;;;;;5044623;28;19921;-68
2023/07/09 03:10:17;;;;;;;;;;;18.80;99.90;;;;;;5043828;28;20001;-68
2023/07/09 03:12:43;;;;;;;;;;;18.80;99.90;;;;;;5044266;28;19921;-68
2023/07/09 03:15:10;;;;;;;;;;;18.80;99.90;;;;;;5044474;28;19992;-68
2023/07/09 03:17:37;;;;;;;;;;;18.70;99.90;;;;;;5052896;28;19920;-68
2023/07/09 03:20:07;;;;;;;;;;;18.70;99.90;;;;;;5063585;28;19991;-67
2023/07/09 03:22:34;;;;;;;;;;;18.70;99.90;;;;;;5063984;28;19928;-68
2023/07/09 03:25:01;;;;;;;;;;;18.70;99.90;;;;;;5063957;28;19921;-68
2023/07/09 03:27:27;;;;;;;;;;;18.60;99.90;;;;;;5064245;28;19963;-68
2023/07/09 03:29:53;;;;;;;;;;;18.60;99.90;;;;;;5050279;28;20076;-68
2023/07/09 03:32:21;;;;;;;;;;;18.60;99.90;;;;;;5043571;28;20192;-68
2023/07/09 03:34:48;;;;;;;;;;;18.50;99.90;;;;;;5043637;28;19927;-68
2023/07/09 03:37:16;;;;;;;;;;;18.50;99.90;;;;;;5043755;28;20172;-68
2023/07/09 03:39:42;;;;;;;;;;;18.50;99.90;;;;;;5043252;28;19928;-67
2023/07/09 03:42:09;;;;;;;;;;;18.40;99.90;;;;;;5043915;28;19920;-67
2023/07/09 03:44:36;;;;;;;;;;;18.40;99.90;;;;;;5043691;28;19978;-68
2023/07/09 03:47:02;;;;;;;;;;;18.40;99.90;;;;;;5043810;28;19984;-68
2023/07/09 03:49:30;;;;;;;;;;;18.40;99.90;;;;;;5040279;28;19927;-68
2023/07/09 03:51:57;;;;;;;;;;;18.40;99.90;;;;;;5043561;28;19959;-68
2023/07/09 03:54:25;;;;;;;;;;;18.30;99.90;;;;;;5043914;28;19984;-68
2023/07/09 03:56:51;;;;;;;;;;;18.30;99.90;;;;;;5043787;28;19985;-68
2023/07/09 03:59:18;;;;;;;;;;;18.30;99.90;;;;;;5042858;28;20232;-68
2023/07/09 04:01:46;;;;;;;;;;;18.30;99.90;;;;;;5043652;28;19992;-68
2023/07/09 04:04:13;;;;;;;;;;;18.30;99.90;;;;;;5043881;28;19932;-68
2023/07/09 04:06:40;;;;;;;;;;;18.30;99.90;;;;;;5043621;28;19957;-68
2023/07/09 04:09:07;;;;;;;;;;;18.30;99.90;;;;;;5043004;28;19928;-68
2023/07/09 04:11:35;;;;;;;;;;;18.30;99.90;;;;;;5043289;28;19921;-68
2023/07/09 04:14:01;;;;;;;;;;;18.30;99.90;;;;;;5043637;28;19988;-67
2023/07/09 04:16:28;;;;;;;;;;;18.30;99.90;;;;;;5043141;28;20255;-68
2023/07/09 04:18:54;;;;;;;;;;;18.30;99.90;;;;;;5041920;28;19928;-68
2023/07/09 04:21:21;;;;;;;;;;;18.30;99.90;;;;;;5043310;28;19921;-68
2023/07/09 04:23:48;;;;;;;;;;;18.30;99.90;;;;;;5043184;28;19953;-68
2023/07/09 04:26:15;;;;;;;;;;;18.30;99.90;;;;;;5043425;28;19988;-68
2023/07/09 04:28:42;;;;;;;;;;;18.30;99.90;;;;;;5042346;28;20003;-68
2023/07/09 04:31:09;;;;;;;;;;;18.30;99.90;;;;;;5043095;28;19928;-68
2023/07/09 04:33:36;;;;;;;;;;;18.30;99.90;;;;;;5028827;28;19921;-68
2023/07/09 04:36:06;;;;;;;;;;;18.30;99.90;;;;;;5027585;28;19944;-68
2023/07/09 04:38:33;;;;;;;;;;;18.30;99.90;;;;;;5042470;28;19951;-68
2023/07/09 04:40:59;;;;;;;;;;;18.30;99.90;;;;;;5047177;28;19928;-68
2023/07/09 04:43:26;;;;;;;;;;;18.30;99.90;;;;;;5062993;28;20226;-68
2023/07/09 04:45:54;;;;;;;;;;;18.40;99.90;;;;;;5052498;28;19984;-68
2023/07/09 04:48:21;;;;;;;;;;;18.40;99.90;;;;;;5042590;28;19956;-68
2023/07/09 04:50:50;;;;;;;;;;;18.50;99.90;;;;;;5043345;28;19921;-68
2023/07/09 04:53:19;;;;;;;;;;;18.50;99.90;;;;;;5047694;23;19929;-85
2023/07/09 04:55:46;;;;;;;;;;;18.60;99.90;;;;;;5058256;28;20115;-86
2023/07/09 04:58:12;;;;;;;;;;;18.60;99.90;;;;;;5063211;28;19975;-86
2023/07/09 05:00:39;;;;;;;;;;;18.70;99.90;;;;;;5058256;28;19983;-86
2023/07/09 05:03:08;;;;;;;;;;;18.80;99.90;;;;;;5060821;28;19920;-86
2023/07/09 05:05:35;;;;;;;;;;;18.80;99.90;;;;;;5055594;28;20159;-86
2023/07/09 05:08:03;;;;;;;;;;;18.90;99.90;;;;;;5056895;28;19920;-86
2023/07/09 05:10:30;;;;;;;;;;;19.00;99.90;;;;;;5062555;28;19956;-86
2023/07/09 05:12:59;;;;;;;;;;;19.10;99.90;;;;;;5059743;28;20216;-86
2023/07/09 05:15:27;;;;;;;;;;;19.10;99.90;;;;;;5059609;28;19927;-86
2023/07/09 05:17:54;;;;;;;;;;;19.20;99.90;;;;;;5066947;28;19956;-86
2023/07/09 05:20:27;;;;;;;;;;;19.20;99.90;;;;;;5066037;28;19928;-86
2023/07/09 05:22:54;;;;;;;;;;;19.30;99.90;;;;;;5067272;28;19928;-86
2023/07/09 05:25:20;;;;;;;;;;;19.40;99.90;;;;;;5067258;28;19940;-86
2023/07/09 05:27:47;;;;;;;;;;;19.40;99.90;;;;;;5068290;28;19981;-86
2023/07/09 05:30:15;;;;;;;;;;;19.40;99.90;;;;;;5068075;28;19928;-86
2023/07/09 05:32:42;;;;;;;;;;;19.50;99.90;;;;;;5066805;28;20263;-86
2023/07/09 05:35:09;;;;;;;;;;;19.60;99.90;;;;;;5067245;28;19944;-86
2023/07/09 05:37:37;;;;;;;;;;;19.70;99.90;;;;;;5067831;28;20208;-86
2023/07/09 05:40:05;;;;;;;;;;;19.90;99.90;;;;;;5067243;28;19956;-86
2023/07/09 05:42:32;;;;;;;;;;;19.90;99.90;;;;;;5066113;28;19991;-86
2023/07/09 05:45:04;;;;;;;;;;;20.10;99.90;;;;;;5065858;28;20112;-86
2023/07/09 05:47:31;;;;;;;;;;;20.20;99.90;;;;;;5066114;28;19967;-87
2023/07/09 05:49:57;;;;;;;;;;;20.30;99.90;;;;;;5063190;28;19948;-88
2023/07/09 05:52:24;;;;;;;;;;;20.40;99.90;;;;;;5061098;28;19952;-87
2023/07/09 05:54:55;;;;;;;;;;;20.50;99.90;;;;;;5065421;28;19941;-87
2023/07/09 05:57:33;;;;;;;;;;;20.70;99.90;;;;;;5065546;28;19967;-86
2023/07/09 06:00:00;;;;;;;;;;;20.80;99.90;;;;;;5056114;28;19998;-86
2023/07/09 06:02:27;;;;;;;;;;;20.90;99.90;;;;;;5065209;28;20231;-86
2023/07/09 06:04:54;;;;;;;;;;;21.00;99.90;;;;;;5065446;28;19980;-86
2023/07/09 06:07:22;;;;;;;;;;;21.10;99.90;;;;;;5066049;28;19987;-87
2023/07/09 06:09:48;;;;;;;;;;;21.20;99.90;;;;;;5065810;28;19952;-87
2023/07/09 06:12:19;;;;;;;;;;;21.30;99.90;;;;;;5065809;28;19963;-87
2023/07/09 06:14:46;;;;;;;;;;;21.40;99.90;;;;;;5065748;28;19920;-86
2023/07/09 06:17:13;;;;;;;;;;;21.60;99.90;;;;;;5066230;28;19948;-87
2023/07/09 06:19:42;;;;;;;;;;;21.70;99.90;;;;;;5066432;28;20180;-87
2023/07/09 06:22:08;;;;;;;;;;;21.90;99.90;;;;;;5060012;28;20000;-86
2023/07/09 06:24:35;;;;;;;;;;;21.90;99.90;;;;;;5065347;28;19993;-86
2023/07/09 06:27:02;;;;;;;;;;;22.00;99.90;;;;;;5063813;28;19932;-86
2023/07/09 06:29:30;;;;;;;;;;;22.20;99.90;;;;;;5065389;28;19941;-86
2023/07/09 06:31:59;;;;;;;;;;;22.20;99.90;;;;;;5058256;28;19988;-86
2023/07/09 06:34:26;;;;;;;;;;;22.40;99.90;;;;;;5061735;28;19921;-86
2023/07/09 06:36:53;;;;;;;;;;;22.50;99.90;;;;;;5064693;28;19921;-86
2023/07/09 06:39:20;;;;;;;;;;;22.60;99.90;;;;;;5064632;28;19920;-85
2023/07/09 06:41:46;;;;;;;;;;;22.70;99.90;;;;;;5064388;28;20123;-86
2023/07/09 06:44:13;;;;;;;;;;;22.90;99.90;;;;;;5064563;28;20207;-85
2023/07/09 06:46:41;;;;;;;;;;;23.00;99.90;;;;;;5064612;28;19927;-85
2023/07/09 06:49:08;;;;;;;;;;;23.20;99.90;;;;;;5064980;28;19940;-85
2023/07/09 06:51:35;;;;;;;;;;;23.20;99.90;;;;;;5064495;28;19944;-85
2023/07/09 06:54:01;;;;;;;;;;;23.40;99.90;;;;;;5063985;28;20169;-85
2023/07/09 06:56:28;;;;;;;;;;;23.60;99.90;;;;;;5056750;28;19928;-86
2023/07/09 06:58:55;;;;;;;;;;;23.70;99.90;;;;;;5064370;28;19940;-85
2023/07/09 07:01:23;;;;;;;;;;;23.80;99.90;;;;;;5064268;28;19937;-86
2023/07/09 07:03:51;;;;;;;;;;;23.90;99.90;;;;;;5064213;28;19921;-87
2023/07/09 07:06:18;;;;;;;;;;;24.00;99.90;;;;;;5064039;28;19948;-86
2023/07/09 07:08:44;;;;;;;;;;;24.10;99.90;;;;;;5064033;28;19987;-86
2023/07/09 07:11:11;;;;;;;;;;;24.20;99.90;;;;;;5063881;28;19947;-86
2023/07/09 07:13:39;;;;;;;;;;;24.30;99.90;;;;;;5064231;28;19956;-86
2023/07/09 07:16:07;;;;;;;;;;;24.50;99.90;;;;;;5064340;28;19920;-86
2023/07/09 07:18:34;;;;;;;;;;;24.60;99.90;;;;;;5064008;28;20090;-86
2023/07/09 07:21:02;;;;;;;;;;;24.70;99.90;;;;;;5064012;28;19928;-86
2023/07/09 07:23:29;;;;;;;;;;;24.80;99.90;;;;;;5063769;28;19927;-86
2023/07/09 07:25:56;;;;;;;;;;;24.80;99.90;;;;;;5063464;28;19952;-86
2023/07/09 07:28:22;;;;;;;;;;;25.00;99.90;;;;;;5064274;28;19993;-86
2023/07/09 07:30:58;;;;;;;;;;;25.20;99.90;;;;;;5062263;28;19956;-86
2023/07/09 07:33:25;;;;;;;;;;;25.30;99.90;;;;;;5064321;28;20124;-86
2023/07/09 07:35:51;;;;;;;;;;;25.50;99.90;;;;;;5064267;28;20254;-86
2023/07/09 07:38:20;;;;;;;;;;;25.60;99.90;;;;;;5063147;28;19921;-86
2023/07/09 07:40:46;;;;;;;;;;;25.70;99.90;;;;;;5063308;28;19955;-86
2023/07/09 07:43:14;;;;;;;;;;;25.70;99.90;;;;;;5061399;28;20157;-86
2023/07/09 07:45:41;;;;;;;;;;;25.80;99.90;;;;;;5063609;28;19928;-86
2023/07/09 07:48:07;;;;;;;;;;;25.80;99.90;;;;;;5050657;28;19988;-87
2023/07/09 07:50:34;;;;;;;;;;;26.00;99.90;;;;;;5053458;28;20223;-87
2023/07/09 07:53:01;;;;;;;;;;;26.10;99.90;;;;;;5062949;28;19948;-86
2023/07/09 07:55:30;;;;;;;;;;;26.10;99.90;;;;;;5063300;28;19953;-87
2023/07/09 07:57:56;;;;;;;;;;;26.20;99.90;;;;;;5074194;28;19917;-86
2023/07/09 08:00:24;;;;;;;;;;;26.30;99.90;;;;;;5066151;28;19921;-86
2023/07/09 08:02:51;;;;;;;;;;;26.50;99.90;;;;;;5062993;28;19928;-86
2023/07/09 08:05:18;;;;;;;;;;;26.60;99.90;;;;;;5062914;28;19948;-86
2023/07/09 08:07:45;;;;;;;;;;;26.70;99.90;;;;;;5063100;28;19955;-86
2023/07/09 08:10:13;;;;;;;;;;;26.80;99.90;;;;;;5063124;28;19921;-86
2023/07/09 08:12:41;;;;;;;;;;;26.90;99.90;;;;;;5058847;28;19984;-86
2023/07/09 08:15:08;;;;;;;;;;;27.00;99.90;;;;;;5062059;28;19952;-86
2023/07/09 08:17:36;;;;;;;;;;;27.10;99.90;;;;;;5059645;28;20132;-86
2023/07/09 08:20:02;;;;;;;;;;;27.20;99.90;;;;;;5059975;28;20004;-87
2023/07/09 08:22:29;;;;;;;;;;;27.30;99.90;;;;;;5058768;28;19964;-86
2023/07/09 08:24:56;;;;;;;;;;;27.40;99.90;;;;;;5062406;28;19952;-85
2023/07/09 08:27:22;;;;;;;;;;;27.50;99.90;;;;;;5060576;28;19927;-86
2023/07/09 08:29:52;;;;;;;;;;;27.50;99.90;;;;;;5057635;28;19984;-86
2023/07/09 08:32:18;;;;;;;;;;;27.60;99.90;;;;;;5059658;28;19921;-86
2023/07/09 08:34:45;;;;;;;;;;;27.60;99.90;;;;;;5058972;28;19955;-86
2023/07/09 08:37:12;;;;;;;;;;;27.80;99.90;;;;;;5062804;28;19987;-86
2023/07/09 08:39:39;;;;;;;;;;;27.80;99.90;;;;;;5062253;28;19928;-86
2023/07/09 08:42:08;;;;;;;;;;;28.00;99.90;;;;;;5060014;28;19992;-86
2023/07/09 08:44:42;;;;;;;;;;;28.10;99.90;;;;;;5059459;28;19932;-86
2023/07/09 08:47:14;;;;;;;;;;;28.10;99.90;;;;;;5055463;28;19955;-86
2023/07/09 08:49:44;;;;;;;;;;;28.20;99.90;;;;;;5056169;28;19921;-86
2023/07/09 08:52:14;;;;;;;;;;;28.50;99.90;;;;;;5063592;28;19933;-86
2023/07/09 08:54:41;;;;;;;;;;;28.60;99.90;;;;;;5083614;22;19948;-73
2023/07/09 08:57:14;;;;;;;;;;;28.70;99.90;;;;;;5067107;28;19920;-71
2023/07/09 08:59:42;;;;;;;;;;;28.80;99.90;;;;;;5086837;28;20207;-72
2023/07/09 09:02:16;;;;;;;;;;;28.90;99.90;;;;;;5086540;28;19921;-73
2023/07/09 09:04:43;;;;;;;;;;;29.00;99.90;;;;;;5066017;28;19920;-72
2023/07/09 09:07:17;;;;;;;;;;;29.20;99.90;;;;;;5066759;28;19921;-73
2023/07/09 09:09:49;;;;;;;;;;;29.30;99.90;;;;;;5080069;28;19979;-72
2023/07/09 09:12:18;;;;;;;;;;;29.30;99.90;;;;;;5083721;28;20152;-73
2023/07/09 09:14:45;;;;;;;;;;;29.40;99.90;;;;;;5070555;28;19963;-72
2023/07/09 09:17:14;;;;;;;;;;;29.40;99.00;;;;;;5049049;28;19984;-74
2023/07/09 09:19:49;;;;;;;;;;;29.40;99.00;;;;;;5071765;28;19930;-75
2023/07/09 09:22:19;;;;;;;;;;;29.50;98.90;;;;;;5066571;28;19920;-74
2023/07/09 09:24:56;;;;;;;;;;;29.50;98.50;;;;;;5080079;28;20104;-74
2023/07/09 09:27:23;;;;;;;;;;;29.60;97.70;;;;;;5066787;28;19928;-73
2023/07/09 09:29:49;;;;;;;;;;;29.70;97.20;;;;;;5066699;28;19983;-74
2023/07/09 09:32:25;;;;;;;;;;;29.80;96.50;;;;;;5078556;28;19943;-74
2023/07/09 09:34:55;;;;;;;;;;;29.80;96.50;;;;;;5087206;28;20111;-73
2023/07/09 09:40:09;;;;;;;;;;;30.00;95.90;;;;;;5056164;28;19921;-73
2023/07/09 09:42:38;;;;;;;;;;;30.00;95.30;;;;;;5097442;28;19987;-74
2023/07/09 09:45:12;;;;;;;;;;;30.10;94.70;;;;;;5090492;28;19980;-72
2023/07/09 09:47:54;;;;;;;;;;;30.10;94.50;;;;;;5085826;28;19944;-75
2023/07/09 09:50:26;;;;;;;;;;;30.10;94.00;;;;;;5082417;28;19928;-74
2023/07/09 09:52:53;;;;;;;;;;;30.00;94.00;;;;;;5074790;28;19928;-75
2023/07/09 09:55:37;;;;;;;;;;;29.90;93.90;;;;;;5075784;28;19921;-76
2023/07/09 09:58:13;;;;;;;;;;;29.80;93.90;;;;;;5070585;28;19920;-73
2023/07/09 10:00:39;;;;;;;;;;;29.90;93.70;;;;;;5085694;28;19920;-73
2023/07/09 10:03:07;;;;;;;;;;;30.00;94.50;;;;;;5080974;28;19987;-72
2023/07/09 10:05:40;;;;;;;;;;;30.10;94.10;;;;;;5071634;28;20155;-75
2023/07/09 10:08:09;;;;;;;;;;;30.40;94.40;;;;;;5075414;28;19927;-74
2023/07/09 10:10:39;;;;;;;;;;;30.60;93.50;;;;;;5079983;28;20179;-75
2023/07/09 10:13:23;;;;;;;;;;;30.70;92.20;;;;;;5069433;28;19924;-74
2023/07/09 10:16:01;;;;;;;;;;;30.80;91.50;;;;;;5065421;28;19925;-74
2023/07/09 10:23:35;;;;;;;;;;;31.10;91.30;;;;;;5042214;28;19921;-70
2023/07/09 10:26:05;;;;;;;;;;;31.20;91.40;;;;;;5047465;28;19959;-70
2023/07/09 10:28:44;;;;;;;;;;;31.40;91.80;;;;;;5050043;28;19949;-70
2023/07/09 10:31:14;;;;;;;;;;;31.60;91.30;;;;;;5046884;28;20163;-70
2023/07/09 10:33:48;;;;;;;;;;;31.70;91.20;;;;;;5045104;28;19988;-70
2023/07/09 10:36:21;;;;;;;;;;;31.90;91.30;;;;;;5045150;28;19921;-70
2023/07/09 10:38:52;;;;;;;;;;;32.00;90.20;;;;;;5045155;28;19921;-70
2023/07/09 10:41:19;;;;;;;;;;;32.10;89.80;;;;;;5044612;28;19921;-70
2023/07/09 10:43:48;;;;;;;;;;;32.20;89.10;;;;;;5044589;28;20004;-70
2023/07/09 10:46:16;;;;;;;;;;;32.30;89.00;;;;;;5044782;28;19995;-70
2023/07/09 10:48:44;;;;;;;;;;;32.40;87.90;;;;;;5045067;28;19976;-70
2023/07/09 10:51:17;;;;;;;;;;;32.50;88.90;;;;;;5044331;28;20346;-70
2023/07/09 10:53:45;;;;;;;;;;;32.70;87.40;;;;;;5044515;28;19980;-69
2023/07/09 10:56:15;;;;;;;;;;;32.90;87.70;;;;;;5044889;28;19921;-70
2023/07/09 10:58:44;;;;;;;;;;;33.00;87.20;;;;;;5039114;28;19921;-70
2023/07/09 11:01:13;;;;;;;;;;;33.10;85.90;;;;;;5044297;28;20112;-70
2023/07/09 11:03:43;;;;;;;;;;;33.20;84.50;;;;;;5044049;28;19927;-70
2023/07/09 11:06:18;;;;;;;;;;;33.40;85.20;;;;;;5039267;28;19925;-70
2023/07/09 11:08:46;;;;;;;;;;;33.40;84.80;;;;;;5035837;28;19988;-69
2023/07/09 11:11:21;;;;;;;;;;;33.50;84.40;;;;;;5043834;28;19928;-70
2023/07/09 11:13:50;;;;;;;;;;;33.60;82.70;;;;;;5043682;28;20245;-71
2023/07/09 11:16:21;;;;;;;;;;;33.80;83.10;;;;;;5044317;28;19960;-70
2023/07/09 11:18:55;;;;;;;;;;;33.80;80.80;;;;;;5044440;28;19927;-70
2023/07/09 11:21:22;;;;;;;;;;;33.90;81.60;;;;;;5043918;28;20172;-70
2023/07/09 11:23:53;;;;;;;;;;;33.90;82.40;;;;;;5044093;28;19992;-70
2023/07/09 11:26:25;;;;;;;;;;;33.80;79.70;;;;;;5043510;28;19952;-70
2023/07/09 11:28:54;;;;;;;;;;;33.80;80.00;;;;;;5044221;28;19921;-69
2023/07/09 11:31:31;;;;;;;;;;;33.80;80.00;;;;;;5043132;28;20278;-70
2023/07/09 11:34:10;;;;;;;;;;;33.80;79.80;;;;;;5042974;28;19921;-70
2023/07/09 11:36:48;;;;;;;;;;;34.00;81.80;;;;;;5044223;28;19929;-71
2023/07/09 11:39:25;;;;;;;;;;;34.10;78.90;;;;;;5044081;28;19929;-71
2023/07/09 11:41:54;;;;;;;;;;;34.30;79.10;;;;;;5043379;28;20179;-71
2023/07/09 11:44:21;;;;;;;;;;;34.50;75.90;;;;;;5043344;28;20306;-71
2023/07/09 11:46:53;;;;;;;;;;;34.50;77.10;;;;;;5043721;28;19989;-69
2023/07/09 11:49:22;;;;;;;;;;;34.60;76.90;;;;;;5043836;28;19925;-70
2023/07/09 11:51:51;;;;;;;;;;;34.80;76.10;;;;;;5043357;28;19927;-71
2023/07/09 11:54:18;;;;;;;;;;;34.90;75.40;;;;;;5043829;28;19921;-71
2023/07/09 11:56:55;;;;;;;;;;;34.90;74.20;;;;;;5037649;28;19943;-71
2023/07/09 11:59:22;;;;;;;;;;;35.00;74.40;;;;;;5043601;28;19963;-70
2023/07/09 12:01:54;;;;;;;;;;;35.00;74.40;;;;;;5043156;28;20175;-70
2023/07/09 12:04:22;;;;;;;;;;;35.10;72.70;;;;;;5043716;28;20116;-70
2023/07/09 12:06:48;;;;;;;;;;;35.20;72.40;;;;;;5043163;28;19921;-70
2023/07/09 12:09:16;;;;;;;;;;;35.20;72.10;;;;;;5042350;28;19931;-70
2023/07/09 12:11:44;;;;;;;;;;;35.30;72.00;;;;;;5041449;28;19980;-70
2023/07/09 12:14:13;;;;;;;;;;;35.30;72.00;;;;;;5042690;28;19984;-70
2023/07/09 12:16:41;;;;;;;;;;;35.30;71.80;;;;;;5041954;28;20204;-70
2023/07/09 12:19:09;;;;;;;;;;;35.50;72.40;;;;;;5048836;28;19976;-70
2023/07/09 12:21:38;;;;;;;;;;;35.70;69.60;;;;;;5045184;28;19921;-70
2023/07/09 12:24:15;;;;;;;;;;;35.80;70.70;;;;;;5029472;28;19992;-70
2023/07/09 12:26:43;;;;;;;;;;;35.90;69.60;;;;;;5042229;28;19921;-70
2023/07/09 12:29:10;;;;;;;;;;;35.90;70.60;;;;;;5043046;28;20124;-70
2023/07/09 12:31:40;;;;;;;;;;;36.10;69.40;;;;;;5041020;28;19953;-70
2023/07/09 12:34:06;;;;;;;;;;;36.10;69.00;;;;;;5041721;28;19921;-70
2023/07/09 12:36:36;;;;;;;;;;;36.20;67.00;;;;;;5042372;28;19944;-70
2023/07/09 12:39:04;;;;;;;;;;;36.30;67.20;;;;;;5042176;28;19921;-70
2023/07/09 12:41:35;;;;;;;;;;;36.50;67.10;;;;;;5041861;28;19984;-70
2023/07/09 12:44:02;;;;;;;;;;;36.60;67.10;;;;;;5043231;28;19921;-70
2023/07/09 12:46:29;;;;;;;;;;;36.70;66.30;;;;;;5043058;28;19921;-70
2023/07/09 12:48:57;;;;;;;;;;;36.80;65.40;;;;;;5043470;28;19980;-71
2023/07/09 12:51:24;;;;;;;;;;;36.80;65.20;;;;;;5042532;28;20093;-70
2023/07/09 12:54:00;;;;;;;;;;;36.80;63.50;;;;;;5042992;28;19925;-70
2023/07/09 12:56:27;;;;;;;;;;;36.70;63.80;;;;;;5042824;28;20228;-71
2023/07/09 12:58:57;;;;;;;;;;;36.80;64.60;;;;;;5041521;28;19981;-71
2023/07/09 13:01:25;;;;;;;;;;;36.90;64.10;;;;;;5042237;28;19948;-71
2023/07/09 13:03:56;;;;;;;;;;;37.00;64.30;;;;;;5040096;28;19928;-71
2023/07/09 13:06:27;;;;;;;;;;;37.10;63.20;;;;;;5042868;28;19927;-71
2023/07/09 13:08:56;;;;;;;;;;;37.10;63.10;;;;;;5023351;28;20109;-71
2023/07/09 13:11:23;;;;;;;;;;;37.20;64.00;;;;;;5022611;28;19922;-71
2023/07/09 13:13:56;;;;;;;;;;;37.40;62.20;;;;;;5022961;28;20001;-71
2023/07/09 13:16:23;;;;;;;;;;;37.50;61.70;;;;;;5037673;28;19921;-71
2023/07/09 13:18:49;;;;;;;;;;;37.50;61.60;;;;;;5042546;28;20226;-72
2023/07/09 13:21:20;;;;;;;;;;;37.60;62.10;;;;;;5040952;28;19921;-71
2023/07/09 13:23:47;;;;;;;;;;;37.70;61.80;;;;;;5042609;28;19925;-71
2023/07/09 13:26:14;;;;;;;;;;;37.80;61.50;;;;;;5042605;28;20259;-71
2023/07/09 13:28:40;;;;;;;;;;;38.00;61.00;;;;;;5043016;28;19929;-71
2023/07/09 13:31:10;;;;;;;;;;;38.20;60.30;;;;;;5041741;28;19928;-71
2023/07/09 13:33:37;;;;;;;;;;;38.30;59.80;;;;;;5042793;28;19928;-71
2023/07/09 13:36:06;;;;;;;;;;;38.10;59.20;;;;;;5044582;28;19963;-71
2023/07/09 13:38:34;;;;;;;;;;;37.80;59.60;;;;;;5046345;28;19928;-73
2023/07/09 13:41:02;;;;;;;;;;;37.60;59.60;;;;;;5045634;28;19985;-71
2023/07/09 13:43:30;;;;;;;;;;;37.70;60.50;;;;;;5045859;28;20163;-71
2023/07/09 13:45:57;;;;;;;;;;;37.80;60.20;;;;;;5045764;28;20208;-72
2023/07/09 13:48:25;;;;;;;;;;;38.00;60.20;;;;;;5046126;28;19928;-72
2023/07/09 13:50:53;;;;;;;;;;;38.20;59.70;;;;;;5045483;28;19922;-71
2023/07/09 13:53:21;;;;;;;;;;;38.40;59.00;;;;;;5046173;28;19921;-72
2023/07/09 13:55:50;;;;;;;;;;;38.60;58.70;;;;;;5046182;28;19921;-71
2023/07/09 13:58:17;;;;;;;;;;;38.70;59.00;;;;;;5046072;28;19928;-72
2023/07/09 14:00:45;;;;;;;;;;;38.70;58.50;;;;;;5045276;28;19928;-72
2023/07/09 14:03:15;;;;;;;;;;;38.80;58.60;;;;;;5045685;28;19972;-71
2023/07/09 14:05:50;;;;;;;;;;;38.70;57.60;;;;;;5045911;28;19921;-72
2023/07/09 14:08:19;;;;;;;;;;;38.70;57.50;;;;;;5045899;28;19925;-72
2023/07/09 14:10:45;;;;;;;;;;;38.60;57.80;;;;;;5024981;28;20271;-72
2023/07/09 14:13:16;;;;;;;;;;;38.30;57.70;;;;;;5026210;28;19964;-72
2023/07/09 14:15:47;;;;;;;;;;;38.00;57.90;;;;;;5032674;28;20268;-73
2023/07/09 14:18:15;;;;;;;;;;;37.70;58.50;;;;;;5038775;28;20205;-71
2023/07/09 14:20:42;;;;;;;;;;;37.30;57.60;;;;;;5033120;28;19960;-71
2023/07/09 14:23:11;;;;;;;;;;;37.00;58.70;;;;;;5043097;28;20109;-72
2023/07/09 14:25:37;;;;;;;;;;;36.80;58.80;;;;;;5045480;28;19992;-75
2023/07/09 14:28:05;;;;;;;;;;;36.80;58.00;;;;;;5045336;28;19921;-70
2023/07/09 14:30:33;;;;;;;;;;;37.00;59.40;;;;;;5044578;28;19928;-70
2023/07/09 14:33:00;;;;;;;;;;;37.20;58.10;;;;;;5030468;28;19953;-71
2023/07/09 14:35:28;;;;;;;;;;;37.30;59.40;;;;;;5039757;28;19976;-71
2023/07/09 14:37:55;;;;;;;;;;;37.40;58.40;;;;;;5025760;28;19921;-70
2023/07/09 14:40:23;;;;;;;;;;;37.50;57.30;;;;;;5025097;28;19956;-70
2023/07/09 14:42:50;;;;;;;;;;;37.50;58.70;;;;;;5035812;28;19929;-71
2023/07/09 14:45:18;;;;;;;;;;;37.70;58.30;;;;;;5029744;28;19960;-71
2023/07/09 14:47:48;;;;;;;;;;;37.80;57.40;;;;;;5043693;28;19971;-71
2023/07/09 14:50:16;;;;;;;;;;;37.70;56.20;;;;;;5025350;28;19960;-72
2023/07/09 14:52:43;;;;;;;;;;;37.70;56.70;;;;;;5042706;28;19980;-71
2023/07/09 14:55:14;;;;;;;;;;;37.70;56.20;;;;;;5042258;28;19924;-70
2023/07/09 14:57:41;;;;;;;;;;;37.90;56.60;;;;;;5040170;28;19921;-72
2023/07/09 15:00:12;;;;;;;;;;;38.00;56.30;;;;;;5044321;28;20363;-71
2023/07/09 15:02:41;;;;;;;;;;;37.90;55.90;;;;;;5029146;28;19956;-70
2023/07/09 15:05:13;;;;;;;;;;;37.80;56.30;;;;;;5044892;28;19928;-71
2023/07/09 15:07:39;;;;;;;;;;;37.60;56.90;;;;;;5044739;28;20104;-71